Time;durP1;ratioP1;P1;durP2;ratioP2;P2;SDS_P1;SDS_P2;PMS_P1;PMS_P2;Temp;Humidity;BMP_temperature;BMP_pressure;BME280_temperature;BME280_humidity;BME280_pressure;Samples;Min_cycle;Max_cycle;Signal;HPM_P1;HPM_P2
2021/12/14 00:01:34;;;;;;;3.95;2.10;;;19.80;50.20;;;;;;5096436;28;20420;-90
2021/12/14 00:04:30;;;;;;;4.28;1.90;;;19.90;50.40;;;;;;5078483;28;20058;-89
2021/12/14 00:06:57;;;;;;;3.35;2.20;;;19.90;50.30;;;;;;5076757;28;20067;-90
2021/12/14 00:09:29;;;;;;;2.88;1.60;;;19.80;50.40;;;;;;5078328;28;20071;-89
2021/12/14 00:17:25;;;;;;;3.33;1.70;;;19.70;50.50;;;;;;5096257;28;20028;-89
2021/12/14 00:19:53;;;;;;;2.20;1.83;;;19.70;50.40;;;;;;5078339;28;20024;-90
2021/12/14 00:24:06;;;;;;;2.10;1.90;;;19.70;50.50;;;;;;5078061;28;20036;-90
2021/12/14 00:25:33;;;;;;;3.28;1.90;;;19.70;50.60;;;;;;5095446;28;20107;-90
2021/12/14 00:28:03;;;;;;;4.32;2.40;;;19.60;50.70;;;;;;5062305;28;20036;-89
2021/12/14 00:30:29;;;;;;;3.97;2.00;;;19.70;50.70;;;;;;5078070;28;20307;-90
2021/12/14 00:32:55;;;;;;;3.88;2.20;;;19.60;50.60;;;;;;5078598;28;20386;-90
2021/12/14 00:35:21;;;;;;;3.25;2.10;;;19.60;50.70;;;;;;5077787;28;20024;-89
2021/12/14 00:37:49;;;;;;;3.22;2.00;;;19.60;50.60;;;;;;5077847;28;20042;-89
2021/12/14 00:40:15;;;;;;;5.50;2.05;;;19.60;50.70;;;;;;5077458;28;20044;-90
2021/12/14 00:42:41;;;;;;;2.63;2.08;;;19.60;50.70;;;;;;5077438;28;20534;-90
2021/12/14 00:45:07;;;;;;;3.92;2.10;;;19.60;50.70;;;;;;5095755;28;20016;-90
2021/12/14 00:47:33;;;;;;;2.90;1.98;;;19.50;50.80;;;;;;5095663;28;20020;-90
2021/12/14 00:49:59;;;;;;;2.63;1.85;;;19.50;50.70;;;;;;5095709;28;20023;-89
2021/12/14 00:52:24;;;;;;;5.28;2.20;;;19.50;50.70;;;;;;5077496;28;20492;-89
2021/12/14 00:54:50;;;;;;;2.40;2.05;;;19.50;50.70;;;;;;5095592;28;20095;-89
2021/12/14 00:57:17;;;;;;;3.33;1.92;;;19.50;50.70;;;;;;5093654;28;20028;-90
2021/12/14 00:59:43;;;;;;;3.95;2.05;;;19.40;50.70;;;;;;5095482;28;20016;-89
2021/12/14 01:02:14;;;;;;;4.10;1.92;;;19.40;50.70;;;;;;5077342;28;20028;-90
2021/12/14 01:04:47;;;;;;;3.10;1.90;;;19.40;50.90;;;;;;5078076;28;20054;-89
2021/12/14 01:07:15;;;;;;;3.83;1.92;;;19.40;50.70;;;;;;5095216;28;20024;-89
2021/12/14 01:09:50;;;;;;;3.35;1.88;;;19.40;50.90;;;;;;5060812;28;20066;-90
2021/12/14 01:12:41;;;;;;;3.00;2.03;;;19.40;50.80;;;;;;5077344;28;20071;-90
2021/12/14 01:15:28;;;;;;;3.10;1.88;;;19.40;50.80;;;;;;5079644;28;20102;-90
2021/12/14 01:18:13;;;;;;;3.40;2.05;;;19.40;50.80;;;;;;5076514;28;20469;-89
2021/12/14 01:20:43;;;;;;;3.88;2.05;;;19.30;50.90;;;;;;5076859;28;20111;-89
2021/12/14 01:23:18;;;;;;;2.42;1.98;;;19.30;50.90;;;;;;5076898;28;20036;-89
2021/12/14 01:25:49;;;;;;;3.65;2.00;;;19.30;50.90;;;;;;5077148;28;20059;-90
2021/12/14 01:28:26;;;;;;;3.40;2.03;;;19.30;50.90;;;;;;5076647;28;20477;-90
2021/12/14 01:31:06;;;;;;;2.10;1.90;;;19.20;50.80;;;;;;5076824;28;20027;-89
2021/12/14 01:33:33;;;;;;;2.95;2.08;;;19.20;50.90;;;;;;5095010;28;20064;-90
2021/12/14 01:36:01;;;;;;;3.10;2.40;;;19.20;51.90;;;;;;5094614;28;20106;-90
2021/12/14 01:41:02;;;;;;;3.72;2.50;;;19.20;50.80;;;;;;5094378;28;20089;-90
2021/12/14 01:44:07;;;;;;;6.18;2.50;;;19.20;50.80;;;;;;5094517;28;20420;-90
2021/12/14 01:46:45;;;;;;;3.47;2.20;;;19.20;50.80;;;;;;4976815;28;20034;-89
2021/12/14 01:49:14;;;;;;;2.28;2.08;;;19.10;50.90;;;;;;4993008;28;20041;-89
2021/12/14 01:51:44;;;;;;;4.95;2.40;;;19.10;51.10;;;;;;5018659;28;20531;-90
2021/12/14 01:54:13;;;;;;;3.05;2.10;;;19.10;51.00;;;;;;5094375;28;20016;-89
2021/12/14 01:56:39;;;;;;;2.13;1.92;;;19.10;51.00;;;;;;5093541;28;20355;-91
2021/12/14 01:59:14;;;;;;;4.28;2.35;;;19.10;51.00;;;;;;5076115;28;20021;-89
2021/12/14 02:02:21;;;;;;;3.15;2.38;;;19.10;51.10;;;;;;5076234;28;20293;-89
2021/12/14 02:04:43;;;;;;;2.80;2.03;;;19.10;51.10;;;;;;5090543;28;20477;-89
2021/12/14 02:07:10;;;;;;;2.53;2.00;;;19.00;51.10;;;;;;5076085;28;20043;-90
2021/12/14 02:09:37;;;;;;;2.60;2.40;;;19.00;51.10;;;;;;5075863;28;20016;-88
2021/12/14 02:12:10;;;;;;;2.58;2.33;;;19.00;51.00;;;;;;5075999;28;20024;-89
2021/12/14 02:14:36;;;;;;;2.75;2.17;;;19.00;51.10;;;;;;5094083;28;20028;-90
2021/12/14 02:17:05;;;;;;;3.85;2.10;;;19.00;51.20;;;;;;5094062;28;20066;-90
2021/12/14 02:19:33;;;;;;;2.65;2.08;;;19.00;51.20;;;;;;5094317;28;20059;-90
2021/12/14 02:22:01;;;;;;;2.47;2.10;;;19.00;51.10;;;;;;5075966;28;20166;-90
2021/12/14 02:24:29;;;;;;;3.63;2.25;;;19.00;51.20;;;;;;5059348;28;20028;-89
2021/12/14 02:26:55;;;;;;;3.10;2.25;;;18.90;51.10;;;;;;5094001;28;20492;-89
2021/12/14 02:29:28;;;;;;;3.20;2.15;;;18.90;51.10;;;;;;5093866;28;20012;-89
2021/12/14 02:32:02;;;;;;;4.20;2.30;;;18.90;51.20;;;;;;5075872;28;20028;-90
2021/12/14 02:34:28;;;;;;;3.00;2.28;;;18.90;51.20;;;;;;5075799;28;20045;-90
2021/12/14 02:36:53;;;;;;;3.00;2.20;;;18.90;51.20;;;;;;5092833;28;20016;-90
2021/12/14 02:39:46;;;;;;;2.50;2.10;;;18.80;51.10;;;;;;5075595;28;20022;-90
2021/12/14 02:42:23;;;;;;;2.15;1.95;;;18.80;51.10;;;;;;5078138;28;20048;-89
2021/12/14 02:44:52;;;;;;;3.10;2.30;;;18.80;51.20;;;;;;5075550;28;20020;-89
2021/12/14 02:47:20;;;;;;;3.42;2.20;;;18.80;51.30;;;;;;5075372;28;20415;-90
2021/12/14 02:49:48;;;;;;;3.45;2.30;;;18.80;51.30;;;;;;5075224;28;20020;-90
2021/12/14 02:52:25;;;;;;;3.47;2.20;;;18.80;51.30;;;;;;5075490;28;20027;-90
2021/12/14 02:54:55;;;;;;;2.63;2.05;;;18.80;51.30;;;;;;5060307;28;20131;-90
2021/12/14 02:57:25;;;;;;;2.33;2.13;;;18.80;51.30;;;;;;5075537;28;20366;-90
2021/12/14 02:59:53;;;;;;;2.75;2.03;;;18.70;51.20;;;;;;5075852;28;20032;-90
2021/12/14 03:02:24;;;;;;;3.85;2.30;;;18.80;51.40;;;;;;5075415;28;20061;-90
2021/12/14 03:05:01;;;;;;;3.75;2.20;;;18.70;51.30;;;;;;5075125;28;20031;-90
2021/12/14 03:07:32;;;;;;;2.50;2.28;;;18.70;51.50;;;;;;5059883;28;20388;-90
2021/12/14 03:10:19;;;;;;;2.65;2.17;;;18.70;51.40;;;;;;5075057;28;20031;-90
2021/12/14 03:12:52;;;;;;;3.10;2.20;;;18.70;51.40;;;;;;5075442;28;20132;-90
2021/12/14 03:15:33;;;;;;;2.65;2.30;;;18.60;51.30;;;;;;5075318;28;20020;-90
2021/12/14 03:18:08;;;;;;;2.67;2.42;;;18.60;51.40;;;;;;5075427;28;20144;-90
2021/12/14 03:20:38;;;;;;;2.65;2.42;;;18.60;51.40;;;;;;5059530;28;20388;-90
2021/12/14 03:23:11;;;;;;;2.55;2.28;;;18.60;51.40;;;;;;5058464;28;20071;-89
2021/12/14 03:25:41;;;;;;;2.65;2.30;;;18.60;51.40;;;;;;5075046;28;20020;-90
2021/12/14 03:28:09;;;;;;;3.22;2.38;;;18.60;51.40;;;;;;5075120;28;20416;-89
2021/12/14 03:30:42;;;;;;;3.30;2.28;;;18.60;51.40;;;;;;5093117;28;20020;-90
2021/12/14 03:33:18;;;;;;;3.17;2.53;;;18.60;51.40;;;;;;5059217;28;20077;-90
2021/12/14 03:35:56;;;;;;;3.47;2.60;;;18.60;51.50;;;;;;5074165;28;20042;-89
2021/12/14 03:38:50;;;;;;;2.67;2.20;;;18.50;51.40;;;;;;5093007;28;20035;-90
2021/12/14 03:41:24;;;;;;;2.25;2.05;;;18.50;51.50;;;;;;5074840;28;20047;-90
2021/12/14 03:44:00;;;;;;;3.85;2.35;;;18.50;51.60;;;;;;5075025;28;20374;-90
2021/12/14 03:46:28;;;;;;;2.88;2.20;;;18.50;51.60;;;;;;5092966;28;20024;-90
2021/12/14 03:48:55;;;;;;;3.00;2.20;;;18.50;51.60;;;;;;5093078;28;20059;-90
2021/12/14 03:51:23;;;;;;;2.47;2.10;;;18.50;51.60;;;;;;5093004;28;20035;-90
2021/12/14 03:53:55;;;;;;;2.60;2.13;;;18.50;51.60;;;;;;5074629;28;20104;-90
2021/12/14 03:56:23;;;;;;;6.88;2.30;;;18.50;51.50;;;;;;5093166;28;20577;-90
2021/12/14 03:58:49;;;;;;;3.13;2.35;;;18.40;51.50;;;;;;5074447;28;20537;-90
2021/12/14 04:01:22;;;;;;;3.25;2.38;;;18.40;51.60;;;;;;5076513;28;20028;-89
2021/12/14 04:03:51;;;;;;;2.88;2.35;;;18.40;51.60;;;;;;5096438;28;20031;-90
2021/12/14 04:06:18;;;;;;;3.20;2.13;;;18.40;51.50;;;;;;5078280;28;20024;-89
2021/12/14 04:08:44;;;;;;;2.90;2.40;;;18.40;52.00;;;;;;5078211;28;20469;-90
2021/12/14 04:11:11;;;;;;;2.60;2.10;;;18.40;51.60;;;;;;5078136;28;20341;-90
2021/12/14 04:13:41;;;;;;;2.42;2.08;;;18.40;52.70;;;;;;5078264;28;20016;-90
2021/12/14 04:16:08;;;;;;;2.70;2.25;;;18.40;51.60;;;;;;5078195;28;20016;-89
2021/12/14 04:18:34;;;;;;;3.17;2.20;;;18.40;51.60;;;;;;5096158;28;20113;-89
2021/12/14 04:21:00;;;;;;;3.55;2.25;;;18.30;51.70;;;;;;5078096;28;20028;-89
2021/12/14 04:23:30;;;;;;;2.45;2.25;;;18.30;51.70;;;;;;5096147;28;20093;-90
2021/12/14 04:25:59;;;;;;;2.65;2.30;;;18.30;51.60;;;;;;5078684;28;20038;-90
2021/12/14 04:28:33;;;;;;;2.60;2.10;;;18.30;51.70;;;;;;5096054;28;20055;-90
2021/12/14 04:30:59;;;;;;;2.83;2.58;;;18.30;51.70;;;;;;5096271;28;20027;-89
2021/12/14 04:33:34;;;;;;;3.30;2.30;;;18.30;51.70;;;;;;5077878;28;20027;-89
2021/12/14 04:36:03;;;;;;;2.80;2.42;;;18.30;51.70;;;;;;5078050;28;20035;-90
2021/12/14 04:38:31;;;;;;;2.70;2.50;;;18.30;51.80;;;;;;5077705;28;20550;-89
2021/12/14 04:52:21;;;;;;;3.17;2.33;;;18.20;51.80;;;;;;5095444;28;20071;-90
2021/12/14 04:55:04;;;;;;;2.42;2.13;;;18.20;52.10;;;;;;5061033;28;20032;-89
2021/12/14 04:57:43;;;;;;;2.85;2.55;;;18.20;51.80;;;;;;5095678;28;20032;-89
2021/12/14 05:00:15;;;;;;;2.70;2.50;;;18.20;51.90;;;;;;5077642;28;20059;-89
2021/12/14 05:02:42;;;;;;;2.60;2.40;;;18.20;51.90;;;;;;5095182;28;20047;-90
2021/12/14 05:05:09;;;;;;;2.53;2.33;;;18.20;51.90;;;;;;5095358;28;20020;-89
2021/12/14 05:09:20;;;;;;;2.50;2.30;;;18.20;51.90;;;;;;5095421;28;20418;-90
2021/12/14 05:10:23;;;;;;;3.33;2.60;;;18.20;52.00;;;;;;5092830;28;20032;-89
2021/12/14 05:12:49;;;;;;;2.78;2.40;;;18.10;52.00;;;;;;5076874;28;20021;-90
2021/12/14 05:15:16;;;;;;;3.08;2.60;;;18.10;52.00;;;;;;5094835;28;20081;-90
2021/12/14 05:17:44;;;;;;;2.78;2.50;;;18.10;52.00;;;;;;5077059;28;20042;-89
2021/12/14 05:20:12;;;;;;;2.53;2.33;;;18.10;52.00;;;;;;5095266;28;20020;-90
2021/12/14 05:22:42;;;;;;;2.80;2.20;;;18.10;52.00;;;;;;5077036;28;20049;-90
2021/12/14 05:25:13;;;;;;;2.47;2.25;;;18.10;52.10;;;;;;5076884;28;20038;-90
2021/12/14 05:27:45;;;;;;;2.90;2.33;;;18.10;52.10;;;;;;5095263;28;20061;-90
2021/12/14 05:30:15;;;;;;;2.65;2.15;;;18.00;52.10;;;;;;5060510;28;20028;-90
2021/12/14 05:32:41;;;;;;;2.33;2.13;;;18.00;52.00;;;;;;5076692;28;20032;-90
2021/12/14 05:35:10;;;;;;;2.97;2.20;;;18.00;52.00;;;;;;5076717;28;20103;-90
2021/12/14 05:37:45;;;;;;;2.33;2.10;;;18.00;52.00;;;;;;5077084;28;20373;-90
2021/12/14 05:40:21;;;;;;;2.33;2.13;;;18.00;52.00;;;;;;5094588;28;20052;-90
2021/12/14 05:43:07;;;;;;;2.38;2.10;;;18.00;52.10;;;;;;5075827;28;20085;-89
2021/12/14 05:45:43;;;;;;;2.30;2.10;;;18.00;52.00;;;;;;5076431;28;20035;-90
2021/12/14 05:48:15;;;;;;;2.70;2.40;;;18.00;52.10;;;;;;5076546;28;20408;-89
2021/12/14 05:50:45;;;;;;;2.60;2.10;;;18.00;52.20;;;;;;5076305;28;20032;-90
2021/12/14 05:53:20;;;;;;;3.45;2.92;;;18.00;52.20;;;;;;5076341;28;20057;-90
2021/12/14 05:55:45;;;;;;;3.63;3.13;;;17.90;52.10;;;;;;5094544;28;20031;-90
2021/12/14 05:58:21;;;;;;;3.45;3.13;;;17.90;52.20;;;;;;5076240;28;20028;-90
2021/12/14 06:00:51;;;;;;;4.47;2.90;;;17.90;52.20;;;;;;5076022;28;20027;-90
2021/12/14 06:03:29;;;;;;;3.13;2.83;;;17.90;52.20;;;;;;5094711;28;20047;-90
2021/12/14 06:05:56;;;;;;;3.95;3.10;;;17.90;52.20;;;;;;5094294;28;20034;-89
2021/12/14 06:08:32;;;;;;;3.22;2.78;;;17.90;52.20;;;;;;5094202;28;20020;-90
2021/12/14 06:10:59;;;;;;;3.10;2.80;;;17.90;52.30;;;;;;5076452;28;20085;-90
2021/12/14 06:13:44;;;;;;;3.63;2.88;;;17.90;52.40;;;;;;5075972;28;20111;-90
2021/12/14 06:16:36;;;;;;;3.78;2.70;;;17.90;52.40;;;;;;5075757;28;20079;-90
2021/12/14 06:19:29;;;;;;;3.58;2.60;;;18.00;52.60;;;;;;5089293;28;20135;-90
2021/12/14 06:21:57;;;;;;;3.22;2.85;;;18.00;52.60;;;;;;5075628;28;20036;-89
2021/12/14 06:24:26;;;;;;;3.72;2.70;;;18.10;52.50;;;;;;5075100;28;20020;-90
2021/12/14 06:26:55;;;;;;;3.78;2.63;;;18.10;52.50;;;;;;5093937;28;20035;-90
2021/12/14 06:29:31;;;;;;;2.80;2.33;;;18.20;52.30;;;;;;5075644;28;20373;-89
2021/12/14 06:32:10;;;;;;;2.60;2.35;;;18.40;52.30;;;;;;5076736;28;20039;-89
2021/12/14 06:34:44;;;;;;;2.25;2.05;;;18.50;52.20;;;;;;5075751;28;20032;-89
2021/12/14 06:40:35;;;;;;;2.42;2.03;;;18.70;51.90;;;;;;5061660;28;20065;-90
2021/12/14 06:43:09;;;;;;;2.45;1.80;;;18.90;51.80;;;;;;5075545;28;20032;-90
2021/12/14 06:45:43;;;;;;;3.17;2.13;;;19.00;51.40;;;;;;5059931;28;20117;-89
2021/12/14 06:48:21;;;;;;;3.03;2.03;;;19.20;51.20;;;;;;5075571;28;20082;-89
2021/12/14 06:51:12;;;;;;;2.42;2.10;;;19.30;50.90;;;;;;5075532;28;20082;-90
2021/12/14 06:53:39;;;;;;;2.08;1.90;;;19.50;50.80;;;;;;5063891;28;20035;-90
2021/12/14 06:56:09;;;;;;;3.67;2.30;;;19.60;50.50;;;;;;5075486;28;20016;-90
2021/12/14 06:58:45;;;;;;;2.55;2.30;;;19.70;50.30;;;;;;5075533;28;20024;-89
2021/12/14 07:01:35;;;;;;;2.47;1.90;;;19.80;50.10;;;;;;5093518;28;20020;-89
2021/12/14 07:04:07;;;;;;;2.45;2.20;;;19.90;50.00;;;;;;5093384;28;20085;-89
2021/12/14 07:06:36;;;;;;;2.40;2.20;;;20.00;49.80;;;;;;5075223;28;20485;-89
2021/12/14 07:09:20;;;;;;;2.95;2.00;;;20.00;49.70;;;;;;5075201;28;20107;-89
2021/12/14 07:12:04;;;;;;;12.88;1.88;;;20.10;49.60;;;;;;5093181;28;20024;-90
2021/12/14 07:15:02;;;;;;;3.20;2.08;;;20.20;49.60;;;;;;5076468;28;20040;-90
2021/12/14 07:17:41;;;;;;;3.00;1.88;;;20.20;49.40;;;;;;5075540;28;20031;-89
2021/12/14 07:20:16;;;;;;;2.42;2.08;;;20.20;49.20;;;;;;5075828;28;20024;-89
2021/12/14 07:22:49;;;;;;;2.78;2.13;;;20.30;49.20;;;;;;5093177;28;20123;-90
2021/12/14 07:25:26;;;;;;;5.20;2.35;;;20.30;49.30;;;;;;5058871;28;20077;-90
2021/12/14 07:28:06;;;;;;;3.00;2.55;;;20.40;49.20;;;;;;5075883;28;20438;-90
2021/12/14 07:30:40;;;;;;;4.78;2.50;;;20.40;49.00;;;;;;5059092;28;20115;-90
2021/12/14 07:33:08;;;;;;;4.40;2.58;;;20.40;49.00;;;;;;5093336;28;20103;-90
2021/12/14 07:36:10;;;;;;;4.72;2.53;;;20.40;49.00;;;;;;5077624;28;20028;-90
2021/12/14 07:38:46;;;;;;;2.88;2.40;;;20.40;48.90;;;;;;5097321;28;20060;-90
2021/12/14 07:41:26;;;;;;;2.92;2.40;;;20.40;49.00;;;;;;5078820;28;20083;-90
2021/12/14 07:44:10;;;;;;;4.40;2.85;;;20.40;49.00;;;;;;5096941;28;20032;-90
2021/12/14 07:46:40;;;;;;;4.35;2.30;;;20.40;48.90;;;;;;5078936;28;20128;-90
2021/12/14 07:49:08;;;;;;;3.95;2.58;;;20.40;48.90;;;;;;5078930;28;20089;-90
2021/12/14 07:51:36;;;;;;;4.20;2.67;;;20.40;48.90;;;;;;5078800;28;20020;-90
2021/12/14 07:54:11;;;;;;;3.70;2.20;;;20.40;49.00;;;;;;5078802;28;20126;-90
2021/12/14 07:56:43;;;;;;;2.97;2.53;;;20.40;48.90;;;;;;5096807;28;20059;-90
2021/12/14 07:59:27;;;;;;;3.15;2.65;;;20.30;48.90;;;;;;5078877;28;20055;-90
2021/12/14 08:02:32;;;;;;;3.78;2.55;;;20.30;48.90;;;;;;5078552;28;20120;-88
2021/12/14 08:05:04;;;;;;;3.92;2.78;;;20.30;48.90;;;;;;5045623;28;20122;-88
2021/12/14 08:07:43;;;;;;;2.75;2.15;;;20.30;49.00;;;;;;5078214;28;20496;-88
2021/12/14 08:10:17;;;;;;;3.92;2.35;;;20.30;49.00;;;;;;5096245;28;20381;-88
2021/12/14 08:13:08;;;;;;;2.83;2.20;;;20.30;49.10;;;;;;5076119;28;20071;-87
2021/12/14 08:15:41;;;;;;;4.10;2.30;;;20.30;49.10;;;;;;5078017;28;20046;-88
2021/12/14 08:18:17;;;;;;;;;;;20.30;49.10;;;;;;5096706;28;20032;-88
2021/12/14 08:20:51;;;;;;;2.50;2.13;;;20.20;49.20;;;;;;5061285;28;19904;-89
2021/12/14 08:23:24;;;;;;;4.20;2.00;;;20.20;49.30;;;;;;5077900;28;20127;-88
2021/12/14 08:26:07;;;;;;;2.40;2.15;;;20.20;50.30;;;;;;5077855;28;20028;-88
2021/12/14 08:28:52;;;;;;;2.88;1.77;;;20.20;49.30;;;;;;5063104;28;20036;-89
2021/12/14 08:31:20;;;;;;;2.47;2.20;;;20.20;49.40;;;;;;5078037;28;20031;-88
2021/12/14 08:33:59;;;;;;;2.20;2.00;;;20.20;49.40;;;;;;5060997;28;20111;-89
2021/12/14 08:36:38;;;;;;;2.25;1.95;;;20.20;49.40;;;;;;5077673;28;20028;-89
2021/12/14 08:39:24;;;;;;;2.95;1.88;;;20.20;49.40;;;;;;5077498;28;20020;-89
2021/12/14 08:41:58;;;;;;;2.25;1.90;;;20.20;49.40;;;;;;5095004;28;20512;-89
2021/12/14 08:44:36;;;;;;;3.75;2.25;;;20.20;49.60;;;;;;5095104;28;20461;-89
2021/12/14 08:47:14;;;;;;;2.90;2.10;;;20.20;49.50;;;;;;5092487;28;20385;-88
2021/12/14 08:49:42;;;;;;;3.97;1.98;;;20.20;49.60;;;;;;5095625;28;20020;-89
2021/12/14 08:52:09;;;;;;;3.47;1.95;;;20.20;49.50;;;;;;5077455;28;20020;-88
2021/12/14 08:54:36;;;;;;;2.22;2.00;;;20.20;49.60;;;;;;5077213;28;20032;-89
2021/12/14 08:57:09;;;;;;;2.10;1.90;;;20.20;49.60;;;;;;5077369;28;20026;-89
2021/12/14 08:59:35;;;;;;;;;;;20.20;49.60;;;;;;5077728;28;20498;-89
2021/12/14 09:02:03;;;;;;;2.80;1.70;;;20.10;49.60;;;;;;5095404;28;20044;-89
2021/12/14 09:04:38;;;;;;;4.15;1.90;;;20.20;49.80;;;;;;5077045;28;20032;-88
2021/12/14 09:07:09;;;;;;;2.17;1.75;;;20.10;49.70;;;;;;5076919;28;20434;-88
2021/12/14 09:09:35;;;;;;;5.07;2.10;;;20.20;49.80;;;;;;5076996;28;20028;-89
2021/12/14 09:12:24;;;;;;;3.75;1.98;;;20.20;49.70;;;;;;5094719;28;20055;-88
2021/12/14 09:14:54;;;;;;;2.85;1.90;;;20.20;49.70;;;;;;5095160;28;20028;-88
2021/12/14 09:17:22;;;;;;;2.00;1.80;;;20.20;49.80;;;;;;5077168;28;20028;-88
2021/12/14 09:20:02;;;;;;;3.38;1.70;;;20.20;49.80;;;;;;5076790;28;20028;-88
2021/12/14 09:22:32;;;;;;;5.97;2.10;;;20.20;49.80;;;;;;5094935;28;20039;-88
2021/12/14 09:24:59;;;;;;;2.83;1.60;;;20.20;49.80;;;;;;5060539;28;20474;-88
2021/12/14 09:27:30;;;;;;;2.78;1.80;;;20.20;49.80;;;;;;5094757;28;20020;-88
2021/12/14 09:29:57;;;;;;;3.47;2.00;;;20.20;49.80;;;;;;5094908;28;20098;-88
2021/12/14 09:32:27;;;;;;;3.95;1.80;;;20.10;49.90;;;;;;5094583;28;20493;-89
2021/12/14 09:34:59;;;;;;;5.47;2.20;;;20.10;49.80;;;;;;5094880;28;20023;-89
2021/12/14 09:37:27;;;;;;;5.07;1.95;;;20.10;49.90;;;;;;5076769;28;20024;-89
2021/12/14 09:40:00;;;;;;;5.47;2.15;;;20.20;49.90;;;;;;5076232;28;20059;-89
2021/12/14 09:42:33;;;;;;;3.15;1.77;;;20.20;50.00;;;;;;5076243;28;20036;-89
2021/12/14 09:45:08;;;;;;;2.67;2.00;;;20.10;50.00;;;;;;5076357;28;20042;-88
2021/12/14 09:47:34;;;;;;;3.00;1.80;;;20.10;50.00;;;;;;5076384;28;20038;-89
2021/12/14 09:50:04;;;;;;;3.90;1.83;;;20.10;50.50;;;;;;5076041;28;20415;-89
2021/12/14 09:52:35;;;;;;;3.97;1.90;;;20.10;50.00;;;;;;5094282;28;20035;-89
2021/12/14 09:55:06;;;;;;;5.75;2.00;;;20.10;50.00;;;;;;5076430;28;20028;-88
2021/12/14 09:57:37;;;;;;;2.08;1.77;;;20.10;50.00;;;;;;5075914;28;20419;-89
2021/12/14 10:00:12;;;;;;;4.97;1.95;;;20.20;50.00;;;;;;5094097;28;20028;-89
2021/12/14 10:02:39;;;;;;;4.07;2.05;;;20.10;50.00;;;;;;5094059;28;20051;-88
2021/12/14 10:05:17;;;;;;;2.97;1.77;;;20.10;50.10;;;;;;5076016;28;20017;-88
2021/12/14 10:07:43;;;;;;;5.97;1.83;;;20.10;50.00;;;;;;5076080;28;20050;-89
2021/12/14 10:10:13;;;;;;;4.07;1.90;;;20.10;50.10;;;;;;5093961;28;20536;-89
2021/12/14 10:12:59;;;;;;;6.25;1.80;;;20.10;50.10;;;;;;5076612;28;20491;-88
2021/12/14 10:15:34;;;;;;;3.88;1.80;;;20.10;50.00;;;;;;5078670;28;20036;-89
2021/12/14 10:18:10;;;;;;;4.03;1.80;;;20.10;50.10;;;;;;5093792;28;20028;-89
2021/12/14 10:20:44;;;;;;;2.50;1.70;;;20.10;50.10;;;;;;5094117;28;20020;-88
2021/12/14 10:23:14;;;;;;;3.20;2.03;;;20.10;50.10;;;;;;5093814;28;20036;-88
2021/12/14 10:25:41;;;;;;;3.55;1.85;;;20.10;50.10;;;;;;5093734;28;20084;-89
2021/12/14 10:28:08;;;;;;;4.65;1.65;;;20.10;50.10;;;;;;5075541;28;20465;-89
2021/12/14 10:30:41;;;;;;;3.58;1.90;;;20.10;50.10;;;;;;5075728;28;20020;-88
2021/12/14 10:33:08;;;;;;;;;;;20.10;50.10;;;;;;5094221;28;20020;-88
2021/12/14 10:35:41;;;;;;;4.05;1.95;;;20.10;50.10;;;;;;5093671;28;19904;-88
2021/12/14 10:38:22;;;;;;;4.07;1.85;;;20.10;50.30;;;;;;5075327;28;20038;-88
2021/12/14 10:43:38;;;;;;;2.85;1.80;;;20.10;50.20;;;;;;5094016;28;20369;-88
2021/12/14 10:46:16;;;;;;;3.58;1.90;;;20.10;50.20;;;;;;5075467;28;20027;-89
2021/12/14 10:48:46;;;;;;;3.88;2.00;;;20.10;50.20;;;;;;5094104;28;20103;-89
2021/12/14 10:51:18;;;;;;;3.92;1.73;;;20.10;51.30;;;;;;5093282;28;20028;-88
2021/12/14 10:53:47;;;;;;;3.70;1.98;;;20.10;50.20;;;;;;5093472;28;20107;-89
2021/12/14 10:56:17;;;;;;;2.75;1.63;;;20.10;50.20;;;;;;5058771;28;20032;-88
2021/12/14 10:58:50;;;;;;;2.40;1.60;;;20.10;50.20;;;;;;5075291;28;20544;-89
2021/12/14 11:01:26;;;;;;;3.47;1.80;;;20.10;50.20;;;;;;5074962;28;20024;-88
2021/12/14 11:03:57;;;;;;;4.30;1.60;;;20.10;50.20;;;;;;5075253;28;20039;-88
2021/12/14 11:06:29;;;;;;;3.40;1.80;;;20.10;50.30;;;;;;5093374;28;20028;-89
2021/12/14 11:11:59;;;;;;;2.72;1.70;;;20.10;50.30;;;;;;5073535;28;20363;-88
2021/12/14 11:14:31;;;;;;;3.58;2.13;;;20.10;50.30;;;;;;5079249;28;20028;-88
2021/12/14 11:20:10;;;;;;;2.05;1.60;;;20.10;50.30;;;;;;5097457;28;20031;-88
2021/12/14 11:23:05;;;;;;;3.00;1.50;;;20.10;50.20;;;;;;5079164;28;20056;-89
2021/12/14 11:25:32;;;;;;;4.55;1.80;;;20.10;50.30;;;;;;5098427;28;20044;-88
2021/12/14 11:28:05;;;;;;;3.28;1.80;;;20.10;50.30;;;;;;5082073;28;20044;-89
2021/12/14 11:30:35;;;;;;;2.30;1.63;;;20.10;50.30;;;;;;5079443;28;20024;-90
2021/12/14 11:33:07;;;;;;;3.63;1.88;;;20.10;50.30;;;;;;5097603;28;20133;-90
2021/12/14 11:35:37;;;;;;;16.30;11.45;;;20.10;50.30;;;;;;5078533;28;20027;-88
2021/12/14 11:38:10;;;;;;;13.43;8.27;;;20.10;50.30;;;;;;5097296;28;20032;-88
2021/12/14 11:40:36;;;;;;;19.33;9.57;;;20.10;50.40;;;;;;5096854;28;20047;-88
2021/12/14 11:43:17;;;;;;;16.27;12.75;;;20.10;50.50;;;;;;5096908;28;20043;-88
2021/12/14 11:45:46;;;;;;;19.83;16.15;;;20.10;50.60;;;;;;5097123;28;20024;-87
2021/12/14 11:48:12;;;;;;;24.58;19.20;;;20.10;50.70;;;;;;5096967;28;20032;-86
2021/12/14 11:50:46;;;;;;;29.77;20.33;;;20.10;50.80;;;;;;5096916;28;20468;-87
2021/12/14 11:53:17;;;;;;;32.75;23.10;;;20.10;50.90;;;;;;5096819;28;20036;-87
2021/12/14 11:55:56;;;;;;;31.70;23.45;;;20.10;50.90;;;;;;5097066;28;20480;-89
2021/12/14 11:58:42;;;;;;;32.25;24.60;;;20.20;51.00;;;;;;5078591;28;20114;-89
2021/12/14 12:01:17;;;;;;;31.58;24.25;;;20.20;51.00;;;;;;5096780;28;20036;-88
2021/12/14 12:03:56;;;;;;;27.38;24.27;;;20.10;51.00;;;;;;5096842;28;20024;-87
2021/12/14 12:06:45;;;;;;;34.45;25.52;;;20.20;51.10;;;;;;5078993;28;20486;-88
2021/12/14 12:09:34;;;;;;;30.92;24.17;;;20.20;51.10;;;;;;5096498;28;20038;-87
2021/12/14 12:12:03;;;;;;;31.55;24.67;;;20.10;51.00;;;;;;5096709;28;20850;-88
2021/12/14 12:14:39;;;;;;;29.17;24.60;;;20.20;51.10;;;;;;5078387;28;20372;-88
2021/12/14 12:17:14;;;;;;;31.25;23.52;;;20.20;51.10;;;;;;5096456;28;20027;-88
2021/12/14 12:19:49;;;;;;;30.38;22.98;;;20.20;51.10;;;;;;5096382;28;20028;-87
2021/12/14 12:22:18;;;;;;;30.05;22.02;;;20.20;51.10;;;;;;5095370;28;20473;-87
2021/12/14 12:24:56;;;;;;;26.25;22.02;;;20.20;51.20;;;;;;5061735;28;20058;-86
2021/12/14 12:27:24;;;;;;;25.15;21.02;;;20.20;51.10;;;;;;5096505;28;20020;-87
2021/12/14 12:33:06;;;;;;;24.27;19.35;;;20.20;51.00;;;;;;5096305;28;20568;-87
2021/12/14 12:35:41;;;;;;;23.55;19.63;;;20.20;51.10;;;;;;5096305;28;20073;-87
2021/12/14 12:38:21;;;;;;;23.08;18.17;;;20.20;51.10;;;;;;5096065;28;20523;-87
2021/12/14 12:40:59;;;;;;;22.17;18.00;;;20.20;51.00;;;;;;5077757;28;20048;-86
2021/12/14 12:43:33;;;;;;;20.45;16.60;;;20.20;51.00;;;;;;5095930;28;20027;-86
2021/12/14 12:46:19;;;;;;;20.02;16.33;;;20.20;51.00;;;;;;5095914;28;20018;-86
2021/12/14 12:49:07;;;;;;;19.33;16.33;;;20.20;50.90;;;;;;5095836;28;20024;-86
2021/12/14 12:52:07;;;;;;;18.05;14.35;;;20.20;50.90;;;;;;5095758;28;20028;-86
2021/12/14 12:55:02;;;;;;;17.67;14.00;;;20.20;50.90;;;;;;5056281;28;20036;-86
2021/12/14 12:57:40;;;;;;;17.95;13.98;;;20.20;50.90;;;;;;5095619;28;20035;-86
2021/12/14 13:00:21;;;;;;;19.33;13.13;;;20.20;50.90;;;;;;5095568;28;20024;-86
2021/12/14 13:03:00;;;;;;;17.05;12.82;;;20.20;50.90;;;;;;5095477;28;20024;-89
2021/12/14 13:05:37;;;;;;;14.15;12.43;;;20.20;50.90;;;;;;5077549;28;20020;-89
2021/12/14 13:08:12;;;;;;;17.50;11.23;;;20.20;50.90;;;;;;5077352;28;20024;-89
2021/12/14 13:10:53;;;;;;;14.02;11.02;;;20.20;50.90;;;;;;5077562;28;20570;-89
2021/12/14 13:13:36;;;;;;;18.58;11.13;;;20.20;51.00;;;;;;5077301;28;20111;-89
2021/12/14 13:16:22;;;;;;;;;;;20.20;50.90;;;;;;5094858;28;20030;-89
2021/12/14 13:19:13;;;;;;;16.92;10.55;;;20.10;50.90;;;;;;5077043;28;19904;-89
2021/12/14 13:21:48;;;;;;;15.57;9.93;;;20.10;50.90;;;;;;5077555;28;20031;-89
2021/12/14 13:24:22;;;;;;;15.52;9.32;;;20.10;50.90;;;;;;5076892;28;20381;-89
2021/12/14 13:27:00;;;;;;;17.42;9.48;;;20.20;50.90;;;;;;5076890;28;20020;-90
2021/12/14 13:29:40;;;;;;;11.30;8.68;;;20.10;50.80;;;;;;5095022;28;20111;-90
2021/12/14 13:32:34;;;;;;;15.40;8.85;;;20.20;50.90;;;;;;5060045;28;20491;-89
2021/12/14 13:35:08;;;;;;;11.32;8.48;;;20.10;50.80;;;;;;5076835;28;20485;-89
2021/12/14 13:37:36;;;;;;;13.52;8.60;;;20.10;50.80;;;;;;5076866;28;20024;-89
2021/12/14 13:40:25;;;;;;;12.13;8.13;;;20.10;50.80;;;;;;5076239;28;20354;-89
2021/12/14 13:43:09;;;;;;;11.07;7.75;;;20.10;50.80;;;;;;5079753;28;20031;-89
2021/12/14 13:45:48;;;;;;;9.77;7.45;;;20.10;50.80;;;;;;5076552;28;20043;-89
2021/12/14 13:48:20;;;;;;;10.45;7.25;;;20.10;50.80;;;;;;5094782;28;20024;-89
2021/12/14 13:50:49;;;;;;;10.68;7.85;;;20.10;50.90;;;;;;5094470;28;20496;-89
2021/12/14 13:53:16;;;;;;;10.02;6.90;;;20.10;50.80;;;;;;5076256;28;20036;-89
2021/12/14 13:55:48;;;;;;;10.27;7.35;;;20.10;50.80;;;;;;5076490;28;20032;-89